Time;durP1;ratioP1;P1;durP2;ratioP2;P2;SDS_P1;SDS_P2;PMS_P1;PMS_P2;Temp;Humidity;BMP_temperature;BMP_pressure;BME280_temperature;BME280_humidity;BME280_pressure;Samples;Min_cycle;Max_cycle;Signal;HPM_P1;HPM_P2
2022/06/20 00:01:08;;;;;;;7.03;2.13;;;;;;;20.13;47.68;100127.35;1434087;91;21408;-82
2022/06/20 00:03:43;;;;;;;2.43;1.80;;;;;;;20.09;47.93;100131.53;1430675;91;21422;-82
2022/06/20 00:06:15;;;;;;;3.10;2.30;;;;;;;20.06;48.10;100126.59;1436241;91;21327;-82
2022/06/20 00:08:41;;;;;;;7.70;2.67;;;;;;;20.02;48.17;100125.36;1435429;91;21356;-82
2022/06/20 00:11:16;;;;;;;2.00;1.80;;;;;;;19.99;48.32;100132.51;1429810;91;22929;-82
2022/06/20 00:13:46;;;;;;;4.87;2.40;;;;;;;19.95;48.44;100124.07;1435275;90;21572;-82
2022/06/20 00:16:17;;;;;;;5.42;1.80;;;;;;;19.93;48.62;100125.32;1430214;90;21583;-82
2022/06/20 00:18:44;;;;;;;5.03;1.93;;;;;;;19.89;49.25;100128.15;1437095;91;21327;-82
2022/06/20 00:21:14;;;;;;;5.27;2.00;;;;;;;19.81;49.11;100119.81;1430223;90;21841;-82
2022/06/20 00:23:41;;;;;;;2.80;2.30;;;;;;;19.77;49.29;100122.12;1435280;90;23997;-82
2022/06/20 00:26:08;;;;;;;4.70;2.23;;;;;;;19.73;49.35;100123.56;1430612;91;21583;-82
2022/06/20 00:28:35;;;;;;;7.23;2.10;;;;;;;19.69;49.45;100125.05;1431991;91;21502;-82
2022/06/20 00:31:02;;;;;;;3.63;2.30;;;;;;;19.68;49.54;100125.25;1442566;91;21482;-82
2022/06/20 00:33:28;;;;;;;4.27;2.20;;;;;;;19.65;49.71;100131.89;1438275;90;22317;-82
2022/06/20 00:35:55;;;;;;;4.37;2.20;;;;;;;19.63;49.78;100137.14;1445197;90;21415;-82
2022/06/20 00:38:23;;;;;;;2.20;2.00;;;;;;;19.61;49.83;100122.58;1433462;90;22567;-83
2022/06/20 00:40:53;;;;;;;3.07;1.90;;;;;;;19.60;49.84;100130.34;1429495;91;21615;-83
2022/06/20 00:43:45;;;;;;;3.67;2.25;;;;;;;19.58;49.91;100121.66;1432710;90;21546;-82
2022/06/20 00:46:43;;;;;;;3.53;2.07;;;;;;;19.56;50.10;100128.61;1427610;91;21422;-82
2022/06/20 00:49:24;;;;;;;4.13;2.20;;;;;;;19.51;50.18;100131.09;1446793;89;24186;-83
2022/06/20 00:52:13;;;;;;;2.20;2.00;;;;;;;19.47;50.27;100121.81;1460135;89;21478;-83
2022/06/20 00:55:00;;;;;;;5.50;2.07;;;;;;;19.43;50.48;100125.15;1432482;89;23417;-83
2022/06/20 00:57:44;;;;;;;4.67;1.93;;;;;;;19.39;50.49;100126.92;1419778;89;21658;-83
2022/06/20 01:00:21;;;;;;;9.43;3.10;;;;;;;19.35;50.73;100120.83;1423563;92;22338;-83
2022/06/20 01:03:08;;;;;;;4.47;1.93;;;;;;;19.31;50.77;100117.77;1431937;91;21533;-82
2022/06/20 01:06:08;;;;;;;7.03;2.43;;;;;;;19.27;50.96;100115.70;1426334;91;21437;-83
2022/06/20 01:08:48;;;;;;;3.00;2.20;;;;;;;19.20;51.06;100113.05;1437264;91;21522;-83
2022/06/20 01:11:22;;;;;;;3.57;2.07;;;;;;;19.16;51.22;100115.83;1431794;91;22508;-81
2022/06/20 01:13:50;;;;;;;3.73;2.23;;;;;;;19.12;51.64;100114.63;1431160;91;21452;-81
2022/06/20 01:16:31;;;;;;;3.93;2.50;;;;;;;19.10;51.61;100112.66;1437271;90;21371;-82
2022/06/20 01:19:01;;;;;;;3.80;2.35;;;;;;;19.06;51.97;100114.94;1438287;90;21940;-81
2022/06/20 01:21:35;;;;;;;;;;;;;;;19.03;51.98;100114.55;1432628;90;21466;-81
2022/06/20 01:24:23;;;;;;;1.70;1.60;;;;;;;19.00;52.61;100112.29;1430081;90;20455;-82
2022/06/20 01:27:16;;;;;;;4.43;2.33;;;;;;;18.97;52.03;100108.16;1436186;90;21422;-81
2022/06/20 01:29:42;;;;;;;5.10;2.10;;;;;;;18.94;52.23;100104.05;1419849;91;21988;-82
2022/06/20 01:32:10;;;;;;;3.47;2.27;;;;;;;18.90;52.28;100097.47;1422720;90;21482;-82
2022/06/20 01:34:36;;;;;;;2.03;1.83;;;;;;;18.86;52.49;100099.42;1438609;90;21415;-82
2022/06/20 01:40:06;;;;;;;7.07;2.10;;;;;;;18.80;52.81;100101.09;1408233;91;21443;-81
2022/06/20 01:42:33;;;;;;;4.93;2.10;;;;;;;18.77;53.02;100098.83;1427289;91;21488;-82
2022/06/20 01:45:57;;;;;;;2.60;2.20;;;;;;;18.75;53.21;100096.05;1412793;91;22332;-81
2022/06/20 01:47:35;;;;;;;3.63;1.93;;;;;;;18.73;53.33;100093.55;1431255;90;21565;-81
2022/06/20 01:50:06;;;;;;;6.80;2.30;;;;;;;18.69;53.42;100094.47;1433034;91;22398;-81
2022/06/20 01:52:42;;;;;;;4.37;2.40;;;;;;;18.67;53.74;100091.69;1419959;91;21495;-81
2022/06/20 01:55:13;;;;;;;3.03;2.20;;;;;;;18.63;53.64;100091.80;1430512;91;21370;-80
2022/06/20 01:57:43;;;;;;;3.80;2.10;;;;;;;18.59;53.96;100087.38;1430388;90;23499;-81
2022/06/20 02:00:14;;;;;;;5.43;2.37;;;;;;;18.56;54.19;100084.27;1432507;90;21598;-76
2022/06/20 02:02:50;;;;;;;2.37;2.10;;;;;;;18.52;54.24;100077.70;1419145;90;21673;-76
2022/06/20 02:05:22;;;;;;;3.47;2.30;;;;;;;18.51;54.39;100086.78;1432075;91;21436;-77
2022/06/20 02:07:48;;;;;;;4.17;2.30;;;;;;;18.47;54.66;100086.34;1443609;89;21599;-77
2022/06/20 02:10:20;;;;;;;3.83;2.37;;;;;;;18.43;54.86;100085.95;1434811;91;21511;-77
2022/06/20 02:12:48;;;;;;;4.30;2.80;;;;;;;18.39;54.88;100083.38;1442831;89;21415;-76
2022/06/20 02:15:23;;;;;;;3.73;2.20;;;;;;;18.35;55.08;100082.13;1438092;91;21499;-76
2022/06/20 02:17:50;;;;;;;5.50;2.23;;;;;;;18.32;55.31;100083.88;1410581;91;22812;-76
2022/06/20 02:20:22;;;;;;;6.15;2.50;;;;;;;18.28;55.38;100084.00;1435168;90;21511;-76
2022/06/20 02:22:50;;;;;;;4.87;2.40;;;;;;;18.24;55.44;100090.30;1438793;91;22390;-76
2022/06/20 02:25:22;;;;;;;6.13;2.67;;;;;;;18.20;55.70;100087.70;1431501;91;22457;-77
2022/06/20 02:27:56;;;;;;;3.17;2.00;;;;;;;18.17;55.85;100084.61;1403372;92;21500;-77
2022/06/20 02:30:23;;;;;;;2.63;2.27;;;;;;;18.12;56.16;100091.09;1432651;89;21356;-77
2022/06/20 02:32:56;;;;;;;7.53;2.17;;;;;;;18.08;56.19;100088.01;1430784;91;22104;-78
2022/06/20 02:35:23;;;;;;;8.83;2.40;;;;;;;18.04;56.41;100096.16;1433805;91;21503;-77
2022/06/20 02:37:50;;;;;;;7.07;2.40;;;;;;;18.01;56.40;100093.86;1435147;91;23267;-77
2022/06/20 02:40:20;;;;;;;9.07;2.50;;;;;;;17.96;56.53;100094.48;1444770;91;21592;-77
2022/06/20 02:43:00;;;;;;;6.37;2.27;;;;;;;17.93;56.89;100093.56;1434391;91;21518;-77
2022/06/20 02:45:28;;;;;;;4.30;2.22;;;;;;;17.91;57.13;100092.92;1435719;90;21436;-76
2022/06/20 02:47:58;;;;;;;4.00;2.30;;;;;;;17.89;57.31;100089.62;1437025;91;21327;-76
2022/06/20 02:50:27;;;;;;;;;;;;;;;17.88;57.44;100094.67;1432072;90;21378;-77
2022/06/20 02:53:05;;;;;;;9.43;2.13;;;;;;;17.84;58.51;100093.45;1431894;89;20320;-78
2022/06/20 02:55:34;;;;;;;5.33;2.53;;;;;;;17.81;57.49;100089.84;1442716;90;21356;-78
2022/06/20 02:58:06;;;;;;;3.50;3.13;;;;;;;17.80;57.80;100093.52;1427295;91;22461;-78
2022/06/20 03:00:44;;;;;;;5.43;2.20;;;;;;;17.77;57.92;100092.56;1434658;90;21342;-78
2022/06/20 03:03:18;;;;;;;4.20;2.40;;;;;;;17.75;57.90;100085.23;1446153;90;21438;-78
2022/06/20 03:05:44;;;;;;;6.93;2.87;;;;;;;17.72;58.10;100082.97;1435856;91;21570;-77
2022/06/20 03:08:14;;;;;;;3.37;2.53;;;;;;;17.70;58.46;100079.69;1436567;91;21326;-78
2022/06/20 03:10:44;;;;;;;11.37;3.00;;;;;;;17.70;58.45;100085.05;1427468;91;21327;-78
2022/06/20 03:13:12;;;;;;;;;;;;;;;17.70;58.58;100085.05;1438508;91;22354;-78
2022/06/20 03:15:43;;;;;;;5.20;2.53;;;;;;;17.71;59.43;100085.34;1436462;91;20312;-78
2022/06/20 03:18:16;;;;;;;4.50;2.57;;;;;;;17.72;58.89;100086.98;1440248;90;21369;-78
2022/06/20 03:20:43;;;;;;;7.57;2.83;;;;;;;17.74;58.78;100090.29;1433182;90;21496;-78
2022/06/20 03:23:29;;;;;;;9.73;2.33;;;;;;;17.79;58.97;100085.20;1440018;91;21413;-78
2022/06/20 03:25:58;;;;;;;7.10;2.60;;;;;;;17.84;59.25;100078.72;1446681;91;21349;-78
2022/06/20 03:28:28;;;;;;;2.90;2.10;;;;;;;17.92;59.62;100078.50;1439988;91;21481;-78
2022/06/20 03:30:56;;;;;;;5.77;2.20;;;;;;;17.97;59.32;100073.37;1432696;91;21481;-78
2022/06/20 03:33:22;;;;;;;5.10;2.60;;;;;;;18.02;59.21;100072.25;1435341;90;21526;-78
2022/06/20 03:36:09;;;;;;;5.20;2.37;;;;;;;18.08;58.95;100064.42;1434386;90;22428;-78
2022/06/20 03:38:37;;;;;;;10.17;3.03;;;;;;;18.12;58.71;100063.80;1439162;91;21378;-78
2022/06/20 03:41:05;;;;;;;7.67;2.30;;;;;;;18.14;58.77;100059.59;1435494;91;21304;-78
2022/06/20 03:43:32;;;;;;;6.23;2.37;;;;;;;18.18;58.54;100058.13;1435074;91;21451;-78
2022/06/20 03:46:05;;;;;;;10.13;2.40;;;;;;;18.21;58.58;100049.68;1436179;91;21392;-77
2022/06/20 03:48:52;;;;;;;4.63;2.23;;;;;;;18.24;58.56;100042.56;1426599;89;21414;-77
2022/06/20 03:51:22;;;;;;;7.30;3.43;;;;;;;18.27;58.57;100038.16;1433988;90;21626;-77
2022/06/20 03:53:56;;;;;;;7.47;2.50;;;;;;;18.29;58.64;100038.76;1434471;90;22859;-77
2022/06/20 03:56:33;;;;;;;7.10;2.70;;;;;;;18.31;58.65;100034.03;1429320;90;21489;-77
2022/06/20 03:59:20;;;;;;;4.73;2.73;;;;;;;18.36;58.71;100028.06;1447494;91;22067;-78
2022/06/20 04:02:03;;;;;;;6.53;2.43;;;;;;;18.38;58.71;100024.63;1430644;91;21423;-78
2022/06/20 04:04:41;;;;;;;6.03;2.90;;;;;;;18.42;58.73;100026.70;1418978;90;22479;-78
2022/06/20 04:07:29;;;;;;;7.97;2.83;;;;;;;18.46;58.76;100020.40;1429653;91;21598;-78
2022/06/20 04:13:25;;;;;;;4.40;2.80;;;;;;;18.59;59.01;100014.20;1437817;90;21387;-77
2022/06/20 04:16:18;;;;;;;8.67;2.30;;;;;;;18.66;58.82;100010.98;1436158;90;21371;-76
2022/06/20 04:18:56;;;;;;;5.60;2.57;;;;;;;18.73;58.55;100010.45;1426240;90;21378;-76
2022/06/20 04:21:34;;;;;;;6.70;2.83;;;;;;;18.79;58.81;100010.98;1422444;91;21372;-77
2022/06/20 04:24:20;;;;;;;11.60;3.07;;;;;;;18.87;58.71;100011.24;1436039;91;22003;-77
2022/06/20 04:27:07;;;;;;;6.43;2.57;;;;;;;18.97;58.59;100008.95;1439654;91;21501;-77
2022/06/20 04:29:47;;;;;;;6.13;2.60;;;;;;;19.08;58.43;100018.20;1424695;91;22344;-78
2022/06/20 04:32:41;;;;;;;13.38;2.27;;;;;;;19.19;58.39;100021.55;1435380;91;22328;-78
2022/06/20 04:35:27;;;;;;;6.70;3.20;;;;;;;19.30;58.31;100026.73;1425344;91;22375;-75
2022/06/20 04:37:59;;;;;;;9.63;2.93;;;;;;;19.38;58.34;100029.98;1433607;91;21516;-76
2022/06/20 04:40:42;;;;;;;5.57;2.77;;;;;;;19.52;58.24;100035.30;1439589;90;21606;-77
2022/06/20 04:43:33;;;;;;;23.80;3.47;;;;;;;19.63;58.10;100044.00;1436211;90;21458;-76
2022/06/20 04:46:23;;;;;;;106.80;9.78;;;;;;;19.73;57.76;100040.34;1432548;90;21612;-76
2022/06/20 04:48:50;;;;;;;7.08;2.65;;;;;;;19.83;57.33;100043.38;1439613;90;21414;-76
2022/06/20 04:51:21;;;;;;;12.50;2.53;;;;;;;19.97;56.95;100045.98;1434917;90;21488;-76
2022/06/20 04:53:49;;;;;;;6.27;3.07;;;;;;;20.08;56.82;100044.42;1441007;90;22338;-76
2022/06/20 04:56:26;;;;;;;4.13;2.37;;;;;;;20.19;56.49;100050.43;1442911;90;22301;-76
2022/06/20 04:58:57;;;;;;;11.00;4.90;;;;;;;20.30;56.36;100055.09;1442017;89;21561;-76
2022/06/20 05:01:26;;;;;;;7.93;2.80;;;;;;;20.42;56.33;100056.53;1437003;90;22338;-76
2022/06/20 05:03:57;;;;;;;17.45;2.87;;;;;;;20.55;56.06;100051.07;1440027;88;21635;-76
2022/06/20 05:06:28;;;;;;;6.78;2.37;;;;;;;20.67;55.66;100054.66;1450341;89;22463;-76
2022/06/20 05:09:00;;;;;;;6.17;2.65;;;;;;;20.79;55.27;100056.61;1446322;90;21444;-76
2022/06/20 05:11:33;;;;;;;8.05;2.83;;;;;;;20.90;55.06;100058.03;1435171;90;21465;-77
2022/06/20 05:14:07;;;;;;;7.60;2.40;;;;;;;21.02;55.20;100052.72;1445125;90;22508;-78
2022/06/20 05:16:48;;;;;;;3.85;2.35;;;;;;;21.18;55.09;100056.16;1435898;90;21628;-78
2022/06/20 05:19:23;;;;;;;4.70;2.40;;;;;;;21.34;54.32;100045.80;1440761;91;21396;-77
2022/06/20 05:21:53;;;;;;;51.58;4.28;;;;;;;21.51;53.80;100048.71;1455074;90;21437;-76
2022/06/20 05:24:34;;;;;;;17.32;3.10;;;;;;;21.63;53.39;100058.46;1439065;90;22360;-76
2022/06/20 05:27:18;;;;;;;4.33;2.10;;;;;;;21.72;53.10;100054.09;1425090;91;21414;-76
2022/06/20 05:29:45;;;;;;;53.33;4.83;;;;;;;21.82;53.21;100055.72;1439327;90;21791;-78
2022/06/20 05:32:35;;;;;;;3.90;2.10;;;;;;;21.98;53.10;100060.45;1439111;91;21496;-78
2022/06/20 05:35:08;;;;;;;4.45;2.37;;;;;;;22.11;52.91;100058.59;1443857;91;21363;-78
2022/06/20 05:38:04;;;;;;;3.40;2.22;;;;;;;22.27;52.27;100062.80;1437215;91;22047;-78
2022/06/20 05:40:36;;;;;;;3.52;2.17;;;;;;;22.40;51.31;100068.48;1430440;91;22406;-79
2022/06/20 05:43:02;;;;;;;7.20;3.05;;;;;;;22.52;50.53;100063.91;1433395;90;22279;-79
2022/06/20 05:45:30;;;;;;;9.30;2.35;;;;;;;22.63;50.27;100062.80;1433337;91;21371;-79
2022/06/20 05:48:01;;;;;;;48.60;4.67;;;;;;;22.73;50.21;100065.73;1411733;91;21349;-78
2022/06/20 05:50:33;;;;;;;4.33;2.40;;;;;;;22.84;49.80;100062.70;1431346;91;22265;-77
2022/06/20 05:53:03;;;;;;;7.10;2.90;;;;;;;22.96;49.39;100060.33;1430918;90;21907;-77
2022/06/20 05:55:41;;;;;;;8.65;2.33;;;;;;;23.07;49.36;100060.52;1402837;92;21450;-78
2022/06/20 05:58:11;;;;;;;125.05;6.95;;;;;;;23.19;49.48;100062.14;1437360;90;21443;-77
2022/06/20 06:00:38;;;;;;;8.33;2.92;;;;;;;23.33;49.14;100066.74;1436299;90;21414;-77
2022/06/20 06:03:40;;;;;;;7.40;2.70;;;;;;;23.53;48.73;100062.77;1429120;90;22331;-78
2022/06/20 06:06:15;;;;;;;8.35;2.70;;;;;;;23.71;48.26;100069.36;1436789;90;21409;-78
2022/06/20 06:08:49;;;;;;;7.30;2.45;;;;;;;23.73;47.87;100051.55;1438148;90;21356;-79
2022/06/20 06:11:33;;;;;;;6.08;2.40;;;;;;;23.73;47.87;100051.55;1397696;90;21459;-79
2022/06/20 06:14:16;;;;;;;7.75;2.45;;;;;;;23.93;48.13;100064.59;1430125;90;21607;-81
2022/06/20 06:17:00;;;;;;;16.77;2.72;;;;;;;24.05;47.28;100078.33;1436471;91;21349;-90
2022/06/20 06:23:01;;;;;;;8.65;3.12;;;;;;;24.25;47.07;100072.41;1439908;89;21562;-88
2022/06/20 06:25:37;;;;;;;11.30;2.85;;;;;;;24.41;47.00;100069.42;1408538;91;21570;-87
2022/06/20 06:28:17;;;;;;;4.72;3.15;;;;;;;24.53;46.67;100066.65;1432162;91;21899;-87
2022/06/20 06:31:03;;;;;;;11.33;2.95;;;;;;;24.69;46.47;100068.52;1437852;90;21515;-90
2022/06/20 06:33:54;;;;;;;10.00;3.25;;;;;;;24.84;46.11;100069.79;1411500;90;21516;-86
2022/06/20 06:36:31;;;;;;;9.83;2.72;;;;;;;24.95;46.28;100071.56;1422180;91;21429;-87
2022/06/20 06:39:17;;;;;;;19.80;4.05;;;;;;;25.12;45.94;100062.84;1435401;90;23351;-87
2022/06/20 06:41:48;;;;;;;11.68;3.50;;;;;;;25.26;45.45;100067.37;1433770;91;21530;-87
2022/06/20 06:44:35;;;;;;;20.27;3.67;;;;;;;25.39;45.41;100062.91;1432828;90;21495;-87
2022/06/20 06:47:27;;;;;;;9.93;2.85;;;;;;;25.54;44.95;100063.59;1437832;90;21482;-89
2022/06/20 06:50:02;;;;;;;12.73;3.25;;;;;;;25.69;44.31;100056.69;1372538;94;21491;-87
2022/06/20 06:52:42;;;;;;;11.57;3.47;;;;;;;25.81;43.58;100054.66;1476264;92;21260;-93
2022/06/20 06:55:36;;;;;;;14.35;3.12;;;;;;;25.91;43.38;100053.41;1396851;90;21498;-86
2022/06/20 06:58:49;;;;;;;11.75;2.60;;;;;;;25.98;43.19;100055.38;1415899;92;21997;-88
2022/06/20 07:01:23;;;;;;;20.70;3.10;;;;;;;26.09;42.56;100050.30;1427555;91;21399;-87
2022/06/20 07:04:07;;;;;;;7.87;2.70;;;;;;;26.19;42.71;100052.28;1439379;91;21443;-87
2022/06/20 07:06:47;;;;;;;7.08;2.80;;;;;;;26.31;42.14;100052.09;1431028;91;21429;-90
2022/06/20 07:09:22;;;;;;;13.62;3.25;;;;;;;26.46;42.37;100054.91;1408157;91;21547;-87
2022/06/20 07:11:57;;;;;;;22.13;4.30;;;;;;;26.55;41.75;100055.25;1429477;90;22075;-89
2022/06/20 07:14:23;;;;;;;3.72;2.50;;;;;;;26.70;41.88;100047.22;1394835;93;21377;-88
2022/06/20 07:17:11;;;;;;;8.50;2.75;;;;;;;26.83;41.56;100040.48;1414311;90;21473;-88
2022/06/20 07:19:42;;;;;;;33.75;4.03;;;;;;;26.93;41.33;100043.25;1439823;91;21422;-88
2022/06/20 07:22:12;;;;;;;11.30;3.15;;;;;;;27.05;41.19;100047.65;1437334;91;21481;-91
2022/06/20 07:24:40;;;;;;;9.43;2.77;;;;;;;27.14;40.66;100041.42;1435483;91;22341;-87
2022/06/20 07:27:34;;;;;;;7.50;2.77;;;;;;;27.22;40.29;100038.77;1414829;91;21302;-90
2022/06/20 07:30:14;;;;;;;7.10;2.85;;;;;;;27.32;39.56;100032.54;1400569;93;21405;-90
2022/06/20 07:32:52;;;;;;;9.00;2.52;;;;;;;27.42;39.88;100027.95;1435595;90;21496;-91
2022/06/20 07:35:39;;;;;;;27.90;4.03;;;;;;;27.48;39.44;100032.02;1431425;91;21598;-89
2022/06/20 07:38:26;;;;;;;4.65;2.20;;;;;;;27.56;38.66;100027.41;1414932;91;21510;-91
2022/06/20 07:41:00;;;;;;;8.53;2.50;;;;;;;27.66;38.21;100023.36;1439983;90;21428;-90
2022/06/20 07:43:33;;;;;;;205.15;15.98;;;;;;;27.78;38.26;100021.18;1433733;91;21429;-80
2022/06/20 07:46:05;;;;;;;6.92;2.67;;;;;;;27.86;37.97;100019.31;1428808;91;21599;-80
2022/06/20 07:48:38;;;;;;;11.38;2.47;;;;;;;28.00;37.64;100020.14;1435166;91;21371;-80
2022/06/20 07:51:31;;;;;;;20.82;3.15;;;;;;;28.14;37.32;100022.58;1434059;91;21342;-80
2022/06/20 07:54:08;;;;;;;5.67;2.58;;;;;;;28.25;36.61;100024.71;1434336;90;22324;-80
2022/06/20 07:56:52;;;;;;;6.58;2.37;;;;;;;28.43;36.73;100024.73;1419459;91;21384;-80
2022/06/20 07:59:29;;;;;;;11.53;1.98;;;;;;;28.55;35.96;100019.24;1440309;91;21541;-80
2022/06/20 08:02:09;;;;;;;14.60;3.22;;;;;;;28.61;35.74;100018.69;1429168;89;21480;-79
2022/06/20 08:04:38;;;;;;;10.15;2.62;;;;;;;28.72;35.46;100012.11;1422644;90;21480;-80
2022/06/20 08:07:30;;;;;;;6.47;2.37;;;;;;;28.83;35.58;100012.89;1439197;91;21327;-81
2022/06/20 08:10:02;;;;;;;6.97;3.17;;;;;;;28.93;34.77;100002.49;1434897;90;21422;-81
2022/06/20 08:12:36;;;;;;;27.32;3.45;;;;;;;29.02;34.66;100010.34;1439768;89;22419;-81
2022/06/20 08:15:11;;;;;;;6.20;1.98;;;;;;;29.11;34.57;100005.95;1451569;89;21657;-81
2022/06/20 08:17:38;;;;;;;5.62;2.65;;;;;;;29.14;33.92;99999.14;1443534;89;21436;-80
2022/06/20 08:20:06;;;;;;;21.55;3.12;;;;;;;29.21;33.67;99992.29;1442706;89;21391;-81
2022/06/20 08:22:59;;;;;;;9.35;2.42;;;;;;;29.28;34.06;99991.97;1440852;89;23255;-81
2022/06/20 08:25:30;;;;;;;5.95;2.67;;;;;;;29.37;33.40;99992.18;1433327;90;22854;-81
2022/06/20 08:28:20;;;;;;;11.95;2.20;;;;;;;29.48;33.46;99991.02;1435538;90;21390;-80
2022/06/20 08:31:02;;;;;;;6.95;2.27;;;;;;;29.57;33.26;99993.39;1412283;92;22467;-80
2022/06/20 08:33:51;;;;;;;7.10;2.37;;;;;;;29.63;33.04;99981.93;1434612;90;21369;-80
2022/06/20 08:36:27;;;;;;;16.73;2.98;;;;;;;29.71;32.60;99981.88;1420909;90;21521;-80
2022/06/20 08:39:32;;;;;;;31.75;2.50;;;;;;;29.85;32.77;99973.30;1430948;89;21362;-80
2022/06/20 08:42:09;;;;;;;5.30;2.35;;;;;;;29.93;32.17;99982.23;1512792;91;22725;-80
2022/06/20 08:45:05;;;;;;;11.05;2.47;;;;;;;29.97;31.66;99980.55;1405513;91;22234;-80
2022/06/20 08:48:04;;;;;;;6.25;2.37;;;;;;;30.06;31.71;99980.17;1477627;89;21480;-80
2022/06/20 08:51:09;;;;;;;6.72;2.35;;;;;;;30.03;31.35;99978.03;1370373;91;22331;-80
2022/06/20 08:53:52;;;;;;;5.10;2.30;;;;;;;30.11;31.08;99968.41;1495018;90;21474;-81
2022/06/20 08:56:30;;;;;;;4.85;1.90;;;;;;;30.21;31.16;99962.02;1436752;89;21303;-81
2022/06/20 08:59:27;;;;;;;2.65;2.12;;;;;;;30.25;30.88;99960.39;1410203;90;21301;-81
2022/06/20 09:02:11;;;;;;;8.40;2.72;;;;;;;30.33;31.27;99957.03;1391117;90;21436;-80
2022/06/20 09:05:16;;;;;;;3.55;2.10;;;;;;;30.47;31.33;99954.38;1412116;90;21295;-79
2022/06/20 09:08:03;;;;;;;14.25;2.50;;;;;;;30.52;30.58;99949.67;1520943;89;22190;-79
2022/06/20 09:10:50;;;;;;;2.90;2.40;;;;;;;30.61;30.85;99946.30;1357420;91;21351;-79
2022/06/20 09:13:52;;;;;;;3.85;1.82;;;;;;;30.76;30.73;99944.76;1405129;92;21320;-81
2022/06/20 09:16:59;;;;;;;6.33;1.98;;;;;;;30.91;30.76;99943.20;1430571;94;21273;-80
2022/06/20 09:20:00;;;;;;;6.95;1.92;;;;;;;31.00;30.14;99948.26;1438648;94;21381;-81
2022/06/20 09:22:50;;;;;;;4.12;2.10;;;;;;;31.01;29.35;99936.21;1339171;93;21431;-81
2022/06/20 09:25:44;;;;;;;6.30;1.65;;;;;;;31.15;29.81;99931.38;1413580;89;21503;-80
2022/06/20 09:28:25;;;;;;;5.40;2.00;;;;;;;31.18;29.12;99930.78;1380808;95;21328;-81
2022/06/20 09:31:18;;;;;;;9.95;2.12;;;;;;;31.24;29.33;99937.23;1417506;95;21378;-81
2022/06/20 09:34:10;;;;;;;6.92;2.22;;;;;;;31.28;29.28;99932.01;1408184;96;21326;-82
2022/06/20 09:37:14;;;;;;;6.70;1.65;;;;;;;31.26;28.29;99932.84;1259610;98;21299;-81
2022/06/20 09:39:52;;;;;;;9.40;2.83;;;;;;;31.31;28.39;99924.58;1376306;94;22573;-81
2022/06/20 09:42:24;;;;;;;7.25;2.10;;;;;;;31.33;28.61;99910.59;1374910;94;22280;-82
2022/06/20 09:44:59;;;;;;;3.35;1.77;;;;;;;31.39;28.47;99911.63;1365163;96;22543;-81
2022/06/20 09:47:46;;;;;;;6.17;1.90;;;;;;;31.44;28.40;99907.42;1371773;94;21733;-80
2022/06/20 09:50:36;;;;;;;3.85;1.95;;;;;;;31.53;28.23;99901.27;1379771;93;21428;-81
2022/06/20 09:53:11;;;;;;;9.43;2.10;;;;;;;31.57;28.56;99886.70;1350507;95;22072;-82
2022/06/20 09:55:46;;;;;;;2.12;1.72;;;;;;;31.64;27.94;99895.88;1385104;94;21521;-81
2022/06/20 09:58:36;;;;;;;7.80;1.85;;;;;;;31.67;27.78;99898.01;1382102;93;22044;-81
2022/06/20 10:01:20;;;;;;;5.72;1.50;;;;;;;31.70;28.08;99892.73;1354445;94;22558;-93
2022/06/20 10:04:05;;;;;;;12.85;2.33;;;;;;;31.72;27.37;99886.98;1366811;96;21473;-91
2022/06/20 10:06:55;;;;;;;5.83;1.90;;;;;;;31.75;27.08;99889.67;1403971;91;22279;-92
2022/06/20 10:09:39;;;;;;;4.80;1.70;;;;;;;31.73;26.39;99883.69;1432292;90;21541;-92
2022/06/20 10:12:23;;;;;;;6.30;1.80;;;;;;;31.76;27.09;99873.50;1418191;90;21413;-91
2022/06/20 10:15:01;;;;;;;9.48;2.35;;;;;;;31.89;27.42;99868.05;1438442;89;21533;-91
2022/06/20 10:17:57;;;;;;;4.70;1.82;;;;;;;32.06;27.14;99863.94;1455213;90;21259;-89
2022/06/20 10:20:38;;;;;;;7.03;1.87;;;;;;;32.12;26.97;99875.84;1477487;89;22235;-89
2022/06/20 10:23:37;;;;;;;14.73;2.62;;;;;;;32.13;27.17;99867.06;1499655;89;21325;-89
2022/06/20 10:26:19;;;;;;;6.70;2.25;;;;;;;32.28;27.37;99859.92;1500964;90;21201;-88
2022/06/20 10:29:10;;;;;;;3.40;1.87;;;;;;;32.34;26.60;99864.70;1518673;89;21400;-91
2022/06/20 10:31:44;;;;;;;4.95;1.75;;;;;;;32.33;26.63;99848.04;1512871;89;21274;-89
2022/06/20 10:34:42;;;;;;;4.53;1.60;;;;;;;32.43;26.77;99845.66;1489939;90;21149;-90
2022/06/20 10:37:32;;;;;;;2.92;1.67;;;;;;;32.45;26.80;99839.29;1486151;89;21451;-89
2022/06/20 10:40:44;;;;;;;5.95;2.27;;;;;;;32.51;26.89;99847.14;1522685;89;21381;-88
2022/06/20 10:43:15;;;;;;;3.25;2.33;;;;;;;32.69;26.98;99845.36;1520998;90;22066;-89
2022/06/20 10:45:59;;;;;;;4.47;1.90;;;;;;;32.84;26.29;99835.97;1519695;89;21318;-88
2022/06/20 10:48:37;;;;;;;2.10;1.87;;;;;;;32.88;26.38;99836.14;1401623;93;22829;-89
2022/06/20 10:51:37;;;;;;;2.72;1.75;;;;;;;32.98;26.79;99842.77;1461676;89;21316;-89
2022/06/20 10:54:33;;;;;;;6.50;2.37;;;;;;;33.15;26.54;99831.95;1438842;89;21466;-88
2022/06/20 10:57:17;;;;;;;9.70;2.45;;;;;;;33.12;26.07;99825.72;1428490;89;21414;-88
2022/06/20 10:59:58;;;;;;;12.10;2.15;;;;;;;33.16;26.36;99814.94;1378110;93;22492;-90
2022/06/20 11:03:17;;;;;;;9.48;3.35;;;;;;;33.32;26.41;99811.22;1394960;94;21420;-90
2022/06/20 11:06:08;;;;;;;10.68;2.20;;;;;;;33.36;26.14;99810.86;1394804;92;22125;-88
2022/06/20 11:08:44;;;;;;;74.90;5.53;;;;;;;33.53;26.43;99794.52;1436817;90;21416;-89
2022/06/20 11:11:26;;;;;;;6.92;1.60;;;;;;;33.69;26.00;99791.60;1421296;91;23296;-90
2022/06/20 11:14:17;;;;;;;12.18;2.47;;;;;;;33.68;25.76;99785.84;1425281;90;21453;-90
2022/06/20 11:17:15;;;;;;;5.85;2.20;;;;;;;33.61;26.21;99790.20;1443934;90;21408;-89
2022/06/20 11:19:51;;;;;;;8.00;1.90;;;;;;;33.62;26.68;99784.38;1437947;90;22339;-87
2022/06/20 11:22:51;;;;;;;3.85;2.02;;;;;;;33.74;26.13;99781.02;1438753;90;21474;-88
2022/06/20 11:25:43;;;;;;;8.20;2.25;;;;;;;33.72;25.73;99768.75;1439521;91;21415;-85
2022/06/20 11:28:39;;;;;;;6.22;2.12;;;;;;;33.70;26.25;99762.22;1440670;90;22432;-89
2022/06/20 11:31:50;;;;;;;2.15;1.92;;;;;;;33.75;25.75;99754.39;1439896;91;21522;-89
2022/06/20 11:34:53;;;;;;;3.30;1.87;;;;;;;33.70;25.99;99754.80;1435584;91;21537;-88
2022/06/20 11:37:49;;;;;;;10.18;1.87;;;;;;;33.73;25.35;99756.09;1431771;91;21530;-88
2022/06/20 11:40:57;;;;;;;20.05;3.60;;;;;;;33.64;25.70;99749.21;1437633;90;21441;-89
2022/06/20 11:43:46;;;;;;;8.78;1.60;;;;;;;33.73;25.76;99756.67;1435689;89;22259;-89
2022/06/20 11:46:40;;;;;;;84.65;6.12;;;;;;;33.81;25.20;99760.00;1443450;90;21504;-88
2022/06/20 11:49:36;;;;;;;6.12;3.12;;;;;;;33.68;25.43;99743.89;1433800;91;21437;-87
2022/06/20 11:52:36;;;;;;;3.72;2.08;;;;;;;33.83;25.83;99745.38;1446267;89;22369;-88
2022/06/20 11:55:18;;;;;;;13.60;2.17;;;;;;;33.99;25.72;99731.45;1437083;91;21408;-88
2022/06/20 11:57:53;;;;;;;26.65;3.45;;;;;;;34.08;25.50;99731.48;1440771;91;21541;-88
2022/06/20 12:00:25;;;;;;;8.35;2.00;;;;;;;34.15;25.13;99738.67;1443662;91;21656;-87
2022/06/20 12:03:37;;;;;;;8.05;1.95;;;;;;;34.01;24.53;99738.81;1434340;91;21408;-88
2022/06/20 12:06:18;;;;;;;15.75;2.10;;;;;;;34.04;24.55;99731.91;1428213;90;21520;-85
2022/06/20 12:08:56;;;;;;;10.63;1.70;;;;;;;34.14;25.00;99729.63;1443468;91;21636;-85
2022/06/20 12:11:49;;;;;;;48.00;3.67;;;;;;;34.35;25.23;99723.49;1441993;89;21392;-83
2022/06/20 12:14:45;;;;;;;5.03;1.82;;;;;;;34.51;25.05;99724.63;1437704;91;21493;-84
2022/06/20 12:17:46;;;;;;;12.23;1.80;;;;;;;34.69;24.43;99719.13;1433830;89;23065;-84
2022/06/20 12:23:43;;;;;;;12.37;2.37;;;;;;;34.97;23.72;99727.23;1445585;89;21432;-84
2022/06/20 12:26:21;;;;;;;11.65;2.15;;;;;;;34.73;23.36;99717.34;1420410;91;21466;-85
2022/06/20 12:28:52;;;;;;;10.45;1.62;;;;;;;34.56;23.44;99723.69;1443596;89;21605;-84
2022/06/20 12:31:36;;;;;;;8.80;1.75;;;;;;;34.55;23.84;99711.06;1446276;89;21437;-84
2022/06/20 12:34:35;;;;;;;5.78;1.85;;;;;;;34.68;24.09;99701.84;1431910;90;21481;-84
2022/06/20 12:37:34;;;;;;;5.62;1.60;;;;;;;34.75;23.97;99700.77;1439075;91;21438;-84
2022/06/20 12:40:12;;;;;;;3.87;2.40;;;;;;;34.94;23.70;99701.78;1443550;89;22357;-84